createdAt,value
2022-07-29T00:00:09.865Z,9.747390
2022-07-29T00:01:07.886Z,9.747419
2022-07-29T00:02:08.853Z,9.747341
2022-07-29T00:03:07.891Z,9.747327
2022-07-29T00:04:07.897Z,9.747337
2022-07-29T00:05:07.845Z,9.747385
2022-07-29T00:06:07.844Z,9.747286
2022-07-29T00:07:07.814Z,9.747367
2022-07-29T00:08:10.749Z,9.747380
2022-07-29T00:09:08.798Z,9.747459
2022-07-29T00:10:07.801Z,9.747486
2022-07-29T00:11:07.815Z,9.747404
2022-07-29T00:12:07.777Z,9.747359
2022-07-29T00:13:07.766Z,9.747360
2022-07-29T00:14:07.811Z,9.747420
2022-07-29T00:15:07.752Z,9.747518
2022-07-29T00:16:07.808Z,9.747486
2022-07-29T00:17:07.744Z,9.747381
2022-07-29T00:18:07.736Z,9.747418
2022-07-29T00:19:07.944Z,9.747302
2022-07-29T00:20:07.709Z,9.747247
2022-07-29T00:21:07.733Z,9.747391
2022-07-29T00:22:07.705Z,9.747379
2022-07-29T00:23:07.691Z,9.747354
2022-07-29T00:24:08.689Z,9.747421
2022-07-29T00:25:07.675Z,9.747380
2022-07-29T00:26:07.708Z,9.747484
2022-07-29T00:27:07.666Z,9.747432
2022-07-29T00:28:07.656Z,9.747412
2022-07-29T00:29:33.073Z,9.747505
2022-07-29T00:30:09.639Z,9.747401
2022-07-29T00:31:07.694Z,9.747318
2022-07-29T00:32:07.651Z,9.747336
2022-07-29T00:33:09.180Z,9.747455
2022-07-29T00:34:08.605Z,9.747442
2022-07-29T00:35:07.603Z,9.747377
2022-07-29T00:36:07.618Z,9.747458
2022-07-29T00:37:07.859Z,9.747478
2022-07-29T00:38:07.577Z,9.747419
2022-07-29T00:39:07.572Z,9.747344
2022-07-29T00:40:07.562Z,9.747444
2022-07-29T00:41:07.578Z,9.747422
2022-07-29T00:42:07.545Z,9.747460
2022-07-29T00:43:07.537Z,9.747493
2022-07-29T00:44:07.531Z,9.747455
2022-07-29T00:45:07.515Z,9.747458
2022-07-29T00:46:08.546Z,9.747454
2022-07-29T00:47:07.627Z,9.747478
2022-07-29T00:48:07.540Z,9.747330
2022-07-29T00:49:07.553Z,9.747353
2022-07-29T00:50:07.487Z,9.747422
2022-07-29T00:51:07.514Z,9.747395
2022-07-29T00:52:07.484Z,9.747407
2022-07-29T00:53:07.465Z,9.747483
2022-07-29T00:54:07.457Z,9.747450
2022-07-29T00:55:08.727Z,9.747421
2022-07-29T00:56:08.501Z,9.747421
2022-07-29T00:57:07.437Z,9.747525
2022-07-29T00:58:07.433Z,9.747474
2022-07-29T00:59:07.420Z,9.747456
2022-07-29T01:00:07.412Z,9.747397
2022-07-29T01:01:07.479Z,9.747459
2022-07-29T01:02:07.449Z,9.747502
2022-07-29T01:03:07.392Z,9.747464
2022-07-29T01:04:07.381Z,9.747463
2022-07-29T01:05:07.381Z,9.747351
2022-07-29T01:06:07.384Z,9.747379
2022-07-29T01:07:07.383Z,9.747454
2022-07-29T01:08:07.352Z,9.747437
2022-07-29T01:09:07.353Z,9.747420
2022-07-29T01:10:07.341Z,9.747432
2022-07-29T01:11:07.326Z,9.747429
2022-07-29T01:12:07.353Z,9.747450
2022-07-29T01:13:08.524Z,9.747445
2022-07-29T01:14:07.311Z,9.747475
2022-07-29T01:15:07.300Z,9.747471
2022-07-29T01:16:07.379Z,9.747452
2022-07-29T01:17:07.313Z,9.747480
2022-07-29T01:18:07.277Z,9.747337
2022-07-29T01:19:39.918Z,9.747371
2022-07-29T01:20:07.272Z,9.747453
2022-07-29T01:21:07.259Z,9.747478
2022-07-29T01:22:07.278Z,9.747495
2022-07-29T01:23:07.246Z,9.747529
2022-07-29T01:24:07.233Z,9.747500
2022-07-29T01:25:07.229Z,9.747463
2022-07-29T01:26:07.226Z,9.747470
2022-07-29T01:27:07.241Z,9.747525
2022-07-29T01:28:07.209Z,9.747519
2022-07-29T01:29:08.279Z,9.747512
2022-07-29T01:30:07.190Z,9.747480
2022-07-29T01:31:07.235Z,9.747499
2022-07-29T01:32:07.254Z,9.747548
2022-07-29T01:33:07.162Z,9.747573
2022-07-29T01:34:07.169Z,9.747514
2022-07-29T01:35:07.270Z,9.747479
2022-07-29T01:36:07.145Z,9.747505
2022-07-29T01:37:07.162Z,9.747616
2022-07-29T01:38:07.121Z,9.747499
2022-07-29T01:39:07.121Z,9.747461
2022-07-29T01:40:07.109Z,9.747494
2022-07-29T01:41:07.102Z,9.747456
2022-07-29T01:42:07.145Z,9.747505
2022-07-29T01:43:07.099Z,9.747573
2022-07-29T01:44:07.083Z,9.747550
2022-07-29T01:45:07.068Z,9.747647
2022-07-29T01:46:07.103Z,9.747470
2022-07-29T01:47:07.085Z,9.747463
2022-07-29T01:48:07.047Z,9.747518
2022-07-29T01:49:07.085Z,9.747413
2022-07-29T01:50:07.040Z,9.747496
2022-07-29T01:51:07.026Z,9.747576
2022-07-29T01:52:07.041Z,9.747478
2022-07-29T01:53:07.010Z,9.747525
2022-07-29T01:54:06.995Z,9.747510
2022-07-29T01:55:07.032Z,9.747514
2022-07-29T01:56:06.987Z,9.747504
2022-07-29T01:57:07.005Z,9.747466
2022-07-29T01:58:06.994Z,9.747403
2022-07-29T01:59:06.966Z,9.747418
2022-07-29T02:00:06.964Z,9.747564
2022-07-29T02:01:06.954Z,9.747622
2022-07-29T02:02:07.043Z,9.747525
2022-07-29T02:03:06.935Z,9.747607
2022-07-29T02:04:06.936Z,9.747540
2022-07-29T02:05:06.978Z,9.747624
2022-07-29T02:06:06.914Z,9.747548
2022-07-29T02:07:06.936Z,9.747463
2022-07-29T02:08:06.901Z,9.747388
2022-07-29T02:09:06.889Z,9.747656
2022-07-29T02:10:06.884Z,9.747503
2022-07-29T02:11:06.878Z,9.747355
2022-07-29T02:12:06.898Z,9.747550
2022-07-29T02:13:06.863Z,9.747457
2022-07-29T02:14:06.855Z,9.747505
2022-07-29T02:15:06.846Z,9.747533
2022-07-29T02:16:06.909Z,9.747523
2022-07-29T02:17:07.064Z,9.747500
2022-07-29T02:18:06.821Z,9.747434
2022-07-29T02:19:06.817Z,9.747457
2022-07-29T02:20:06.805Z,9.747455
2022-07-29T02:21:06.825Z,9.747475
2022-07-29T02:22:07.818Z,9.747540
2022-07-29T02:23:06.780Z,9.747529
2022-07-29T02:24:06.777Z,9.747540
2022-07-29T02:25:06.764Z,9.747589
2022-07-29T02:26:07.761Z,9.747581
2022-07-29T02:27:06.784Z,9.747491
2022-07-29T02:28:06.752Z,9.747466
2022-07-29T02:29:06.738Z,9.747391
2022-07-29T02:30:06.733Z,9.747450
2022-07-29T02:31:06.763Z,9.747426
2022-07-29T02:32:06.750Z,9.747536
2022-07-29T02:33:06.705Z,9.747620
2022-07-29T02:34:06.707Z,9.747547
2022-07-29T02:35:06.692Z,9.747442
2022-07-29T02:36:06.695Z,9.747555
2022-07-29T02:37:06.705Z,9.747499
2022-07-29T02:38:06.676Z,9.747535
2022-07-29T02:39:06.671Z,9.747474
2022-07-29T02:40:06.669Z,9.747503
2022-07-29T02:41:06.654Z,9.747510
2022-07-29T02:42:06.673Z,9.747468
2022-07-29T02:43:06.639Z,9.747278
2022-07-29T02:44:06.634Z,9.747358
2022-07-29T02:45:06.621Z,9.747307
2022-07-29T02:46:06.637Z,9.747295
2022-07-29T02:47:07.632Z,9.747375
2022-07-29T02:48:06.602Z,9.747386
2022-07-29T02:49:06.651Z,9.747401
2022-07-29T02:50:06.585Z,9.747363
2022-07-29T02:51:06.582Z,9.747372
2022-07-29T02:52:06.596Z,9.747487
2022-07-29T02:53:06.562Z,9.747363
2022-07-29T02:54:06.555Z,9.747320
2022-07-29T02:55:06.553Z,9.747325
2022-07-29T02:56:06.534Z,9.747333
2022-07-29T02:57:06.561Z,9.747313
2022-07-29T02:58:06.526Z,9.747349
2022-07-29T02:59:06.525Z,9.747453
2022-07-29T03:00:06.507Z,9.747448
2022-07-29T03:01:06.622Z,9.747448
2022-07-29T03:02:06.562Z,9.747473
2022-07-29T03:03:06.489Z,9.747403
2022-07-29T03:04:06.485Z,9.747501
2022-07-29T03:05:06.519Z,9.747507
2022-07-29T03:06:06.455Z,9.747570
2022-07-29T03:07:06.475Z,9.747267
2022-07-29T03:08:06.447Z,9.747298
2022-07-29T03:09:12.043Z,9.747299
2022-07-29T03:10:10.868Z,9.747309
2022-07-29T03:11:07.417Z,9.747237
2022-07-29T03:12:06.441Z,9.747304
2022-07-29T03:13:06.412Z,9.747289
2022-07-29T03:14:06.397Z,9.747263
2022-07-29T03:15:06.392Z,9.747380
2022-07-29T03:16:06.430Z,9.747378
2022-07-29T03:17:06.400Z,9.747363
2022-07-29T03:18:06.369Z,9.747301
2022-07-29T03:19:06.359Z,9.747368
2022-07-29T03:20:06.347Z,9.747344
2022-07-29T03:21:06.338Z,9.747378
2022-07-29T03:22:06.360Z,9.747390
2022-07-29T03:23:06.326Z,9.747401
2022-07-29T03:24:10.308Z,9.747473
2022-07-29T03:25:07.310Z,9.747407
2022-07-29T03:26:06.298Z,9.747376
2022-07-29T03:27:06.331Z,9.747419
2022-07-29T03:28:06.289Z,9.747314
2022-07-29T03:29:06.274Z,9.747207
2022-07-29T03:30:06.269Z,9.747211
2022-07-29T03:31:06.296Z,9.747200
2022-07-29T03:32:08.043Z,9.747282
2022-07-29T03:33:13.219Z,9.747304
2022-07-29T03:34:07.236Z,9.747308
2022-07-29T03:35:06.228Z,9.747534
2022-07-29T03:36:06.229Z,9.747439
2022-07-29T03:37:06.236Z,9.747185
2022-07-29T03:38:07.205Z,9.747267
2022-07-29T03:39:06.200Z,9.747301
2022-07-29T03:40:06.187Z,9.747381
2022-07-29T03:41:06.180Z,9.747402
2022-07-29T03:42:06.202Z,9.747360
2022-07-29T03:43:06.171Z,9.747272
2022-07-29T03:44:06.159Z,9.747335
2022-07-29T03:45:06.153Z,9.747260
2022-07-29T03:46:06.180Z,9.747273
2022-07-29T03:47:06.164Z,9.747252
2022-07-29T03:48:06.130Z,9.747325
2022-07-29T03:49:06.179Z,9.747374
2022-07-29T03:50:06.113Z,9.747342
2022-07-29T03:51:06.107Z,9.747432
2022-07-29T03:52:06.130Z,9.747570
2022-07-29T03:53:06.086Z,9.747493
2022-07-29T03:54:09.924Z,9.747386
2022-07-29T03:55:07.073Z,9.747509
2022-07-29T03:56:06.062Z,9.747369
2022-07-29T03:57:06.049Z,9.747346
2022-07-29T03:58:06.084Z,9.747361
2022-07-29T03:59:06.039Z,9.747426
2022-07-29T04:00:06.036Z,9.747433
2022-07-29T04:01:06.019Z,9.747339
2022-07-29T04:02:06.064Z,9.747400
2022-07-29T04:03:06.112Z,9.747412
2022-07-29T04:04:06.995Z,9.747427
2022-07-29T04:05:05.993Z,9.747391
2022-07-29T04:06:05.986Z,9.747349
2022-07-29T04:07:05.984Z,9.747373
2022-07-29T04:08:05.985Z,9.747263
2022-07-29T04:09:06.962Z,9.747366
2022-07-29T04:10:05.963Z,9.747408
2022-07-29T04:11:05.947Z,9.747427
2022-07-29T04:12:05.946Z,9.747426
2022-07-29T04:13:05.955Z,9.747414
2022-07-29T04:14:05.916Z,9.747379
2022-07-29T04:15:05.911Z,9.747351
2022-07-29T04:16:05.939Z,9.747383
2022-07-29T04:17:05.895Z,9.747447
2022-07-29T04:18:05.909Z,9.747448
2022-07-29T04:19:05.941Z,9.747405
2022-07-29T04:20:05.873Z,9.747482
2022-07-29T04:21:05.871Z,9.747462
2022-07-29T04:22:05.859Z,9.747384
2022-07-29T04:23:05.874Z,9.747386
2022-07-29T04:24:05.845Z,9.747391
2022-07-29T04:25:05.845Z,9.747442
2022-07-29T04:26:05.825Z,9.747499
2022-07-29T04:27:05.823Z,9.747429
2022-07-29T04:28:05.838Z,9.747161
2022-07-29T04:29:05.811Z,9.747352
2022-07-29T04:30:05.791Z,9.747487
2022-07-29T04:31:05.846Z,9.747452
2022-07-29T04:32:05.799Z,9.747360
2022-07-29T04:33:05.799Z,9.747301
2022-07-29T04:34:05.769Z,9.747309
2022-07-29T04:35:05.765Z,9.747360
2022-07-29T04:36:05.752Z,9.747404
2022-07-29T04:37:06.747Z,9.747404
2022-07-29T04:38:05.763Z,9.747303
2022-07-29T04:39:05.728Z,9.747295
2022-07-29T04:40:05.715Z,9.747329
2022-07-29T04:41:05.712Z,9.747229
2022-07-29T04:42:05.696Z,9.747381
2022-07-29T04:43:06.724Z,9.747440
2022-07-29T04:44:05.682Z,9.747369
2022-07-29T04:45:05.686Z,9.747444
2022-07-29T04:46:05.731Z,9.747475
2022-07-29T04:47:05.669Z,9.747478
2022-07-29T04:48:05.680Z,9.747370
2022-07-29T04:49:05.701Z,9.747500
2022-07-29T04:50:05.654Z,9.747462
2022-07-29T04:51:05.635Z,9.747334
2022-07-29T04:52:05.633Z,9.747371
2022-07-29T04:53:05.944Z,9.747355
2022-07-29T04:54:05.609Z,9.747405
2022-07-29T04:55:05.604Z,9.747416
2022-07-29T04:56:05.596Z,9.747477
2022-07-29T04:57:05.586Z,9.747270
2022-07-29T04:58:05.606Z,9.747272
2022-07-29T04:59:05.569Z,9.747637
2022-07-29T05:00:05.564Z,9.747546
2022-07-29T05:01:05.657Z,9.747419
2022-07-29T05:02:05.636Z,9.747454
2022-07-29T05:03:05.666Z,9.747353
2022-07-29T05:04:05.532Z,9.747399
2022-07-29T05:05:06.531Z,9.747337
2022-07-29T05:06:05.524Z,9.747259
2022-07-29T05:07:05.510Z,9.747206
2022-07-29T05:08:05.533Z,9.747304
2022-07-29T05:09:05.500Z,9.747549
2022-07-29T05:10:05.494Z,9.747415
2022-07-29T05:11:11.831Z,9.747346
2022-07-29T05:12:06.504Z,9.747299
2022-07-29T05:13:05.500Z,9.747232
2022-07-29T05:14:05.466Z,9.747331
2022-07-29T05:15:05.487Z,9.747448
2022-07-29T05:16:05.468Z,9.747477
2022-07-29T05:17:05.441Z,9.747511
2022-07-29T05:18:05.455Z,9.747357
2022-07-29T05:19:05.422Z,9.747293
2022-07-29T05:20:05.422Z,9.747299
2022-07-29T05:21:05.413Z,9.747429
2022-07-29T05:22:05.407Z,9.747296
2022-07-29T05:23:05.426Z,9.747268
2022-07-29T05:24:05.388Z,9.747384
2022-07-29T05:25:09.013Z,9.747499
2022-07-29T05:26:06.375Z,9.747404
2022-07-29T05:27:05.369Z,9.747482
2022-07-29T05:28:05.386Z,9.747458
2022-07-29T05:29:05.351Z,9.747347
2022-07-29T05:30:05.346Z,9.747341
2022-07-29T05:31:05.406Z,9.747477
2022-07-29T05:32:05.328Z,9.747450
2022-07-29T05:33:05.359Z,9.747356
2022-07-29T05:34:05.309Z,9.747394
2022-07-29T05:35:05.308Z,9.747390
2022-07-29T05:36:05.309Z,9.747323
2022-07-29T05:37:05.295Z,9.747415
2022-07-29T05:38:05.318Z,9.747598
2022-07-29T05:39:05.288Z,9.747402
2022-07-29T05:40:05.279Z,9.747512
2022-07-29T05:41:05.275Z,9.747466
2022-07-29T05:42:05.257Z,9.747463
2022-07-29T05:43:05.280Z,9.747274
2022-07-29T05:44:05.241Z,9.747467
2022-07-29T05:45:05.231Z,9.747354
2022-07-29T05:46:05.280Z,9.747462
2022-07-29T05:47:05.214Z,9.747430
2022-07-29T05:48:05.211Z,9.747349
2022-07-29T05:49:05.294Z,9.747391
2022-07-29T05:50:05.196Z,9.747459
2022-07-29T05:51:05.190Z,9.747375
2022-07-29T05:52:05.179Z,9.747374
2022-07-29T05:53:19.017Z,9.747397
2022-07-29T05:54:06.190Z,9.747450
2022-07-29T05:55:05.165Z,9.747407
2022-07-29T05:56:05.152Z,9.747371
2022-07-29T05:57:05.151Z,9.747413
2022-07-29T05:58:05.147Z,9.747291
2022-07-29T05:59:05.152Z,9.747434
2022-07-29T06:00:06.166Z,9.747419
2022-07-29T06:01:05.179Z,9.747504
2022-07-29T06:02:05.103Z,9.747462
2022-07-29T06:03:05.098Z,9.747422
2022-07-29T06:04:05.177Z,9.747429
2022-07-29T06:05:05.078Z,9.747420
2022-07-29T06:06:06.075Z,9.747561
2022-07-29T06:07:05.060Z,9.747506
2022-07-29T06:08:05.056Z,9.747484
2022-07-29T06:09:12.178Z,9.747532
2022-07-29T06:10:06.040Z,9.747504
2022-07-29T06:11:05.034Z,9.747458
2022-07-29T06:12:05.021Z,9.747346
2022-07-29T06:13:05.017Z,9.747308
2022-07-29T06:14:05.030Z,9.747392
2022-07-29T06:15:05.003Z,9.747454
2022-07-29T06:16:05.025Z,9.747438
2022-07-29T06:17:05.033Z,9.747400
2022-07-29T06:18:04.990Z,9.747377
2022-07-29T06:19:04.987Z,9.747399
2022-07-29T06:20:07.500Z,9.747392
2022-07-29T06:21:04.957Z,9.747380
2022-07-29T06:22:04.946Z,9.747391
2022-07-29T06:23:04.937Z,9.747288
2022-07-29T06:24:04.962Z,9.747278
2022-07-29T06:25:04.925Z,9.747293
2022-07-29T06:26:04.914Z,9.747313
2022-07-29T06:27:04.907Z,9.747437
2022-07-29T06:28:04.903Z,9.747366
2022-07-29T06:29:04.911Z,9.747375
2022-07-29T06:30:05.384Z,9.747447
2022-07-29T06:31:05.977Z,9.747348
2022-07-29T06:32:04.874Z,9.747351
2022-07-29T06:33:04.861Z,9.747370
2022-07-29T06:34:04.873Z,9.747316
2022-07-29T06:35:37.530Z,9.747305
2022-07-29T06:36:06.833Z,9.747307
2022-07-29T06:37:04.834Z,9.747256
2022-07-29T06:38:12.032Z,9.747491
2022-07-29T06:39:05.846Z,9.747309
2022-07-29T06:40:04.804Z,9.747310
2022-07-29T06:41:04.955Z,9.747501
2022-07-29T06:42:04.794Z,9.747460
2022-07-29T06:43:04.790Z,9.747417
2022-07-29T06:44:04.805Z,9.747368
2022-07-29T06:45:09.195Z,9.747421
2022-07-29T06:46:05.804Z,9.747469
2022-07-29T06:47:04.750Z,9.747458
2022-07-29T06:48:04.747Z,9.747393
2022-07-29T06:49:04.812Z,9.747424
2022-07-29T06:50:04.731Z,9.747347
2022-07-29T06:51:04.722Z,9.747267
2022-07-29T06:52:04.717Z,9.747328
2022-07-29T06:53:04.709Z,9.747319
2022-07-29T06:54:04.733Z,9.747330
2022-07-29T06:55:04.696Z,9.747309
2022-07-29T06:56:04.690Z,9.747290
2022-07-29T06:57:04.683Z,9.747332
2022-07-29T06:58:04.668Z,9.747340
2022-07-29T06:59:04.693Z,9.747343
2022-07-29T07:00:04.663Z,9.747398
2022-07-29T07:01:04.709Z,9.747469
2022-07-29T07:02:04.684Z,9.747438
2022-07-29T07:03:04.635Z,9.747430
2022-07-29T07:04:04.652Z,9.747469
2022-07-29T07:05:04.611Z,9.747467
2022-07-29T07:06:04.616Z,9.747427
2022-07-29T07:07:04.598Z,9.747459
2022-07-29T07:08:04.591Z,9.747472
2022-07-29T07:09:04.614Z,9.747494
2022-07-29T07:10:04.574Z,9.747410
2022-07-29T07:11:04.569Z,9.747382
2022-07-29T07:12:04.570Z,9.747434
2022-07-29T07:13:04.560Z,9.747411
2022-07-29T07:14:04.650Z,9.747487
2022-07-29T07:15:04.546Z,9.747383
2022-07-29T07:16:04.556Z,9.747547
2022-07-29T07:17:04.571Z,9.747426
2022-07-29T07:18:04.525Z,9.747438
2022-07-29T07:19:36.451Z,9.747423
2022-07-29T07:20:04.504Z,9.747385
2022-07-29T07:21:04.505Z,9.747320
2022-07-29T07:22:04.491Z,9.747383
2022-07-29T07:23:04.481Z,9.747465
2022-07-29T07:24:04.511Z,9.747295
2022-07-29T07:25:04.465Z,9.747437
2022-07-29T07:26:04.462Z,9.747392
2022-07-29T07:27:04.471Z,9.747384
2022-07-29T07:28:04.459Z,9.747567
2022-07-29T07:29:04.457Z,9.747501
2022-07-29T07:30:04.423Z,9.747534
2022-07-29T07:31:04.419Z,9.747540
2022-07-29T07:32:04.441Z,9.747602
2022-07-29T07:33:04.411Z,9.747627
2022-07-29T07:34:04.516Z,9.747542
2022-07-29T07:35:04.403Z,9.747497
2022-07-29T07:36:04.378Z,9.747643
2022-07-29T07:37:04.369Z,9.747581
2022-07-29T07:38:04.365Z,9.747525
2022-07-29T07:39:04.355Z,9.747705
2022-07-29T07:40:04.370Z,9.747691
2022-07-29T07:41:04.342Z,9.747750
2022-07-29T07:42:04.326Z,9.747752
2022-07-29T07:43:04.325Z,9.747581
2022-07-29T07:44:04.324Z,9.747533
2022-07-29T07:45:13.542Z,9.747594
2022-07-29T07:46:06.402Z,9.747605
2022-07-29T07:47:12.232Z,9.747571
2022-07-29T07:48:05.290Z,9.747379
2022-07-29T07:49:04.309Z,9.747408
2022-07-29T07:50:04.290Z,9.747473
2022-07-29T07:51:04.260Z,9.747427
2022-07-29T07:52:04.254Z,9.747559
2022-07-29T07:53:04.246Z,9.747440
2022-07-29T07:54:04.232Z,9.747379
2022-07-29T07:55:04.269Z,9.747355
2022-07-29T07:56:12.671Z,9.747415
2022-07-29T07:57:06.222Z,9.747443
2022-07-29T07:58:04.203Z,9.747379
2022-07-29T07:59:04.204Z,9.747379
2022-07-29T08:00:04.296Z,9.747525
2022-07-29T08:01:04.269Z,9.747517
2022-07-29T08:02:04.253Z,9.747550
2022-07-29T08:03:04.198Z,9.747465
2022-07-29T08:04:05.163Z,9.747479
2022-07-29T08:05:04.197Z,9.747510
2022-07-29T08:06:04.148Z,9.747510
2022-07-29T08:07:04.135Z,9.747554
2022-07-29T08:08:04.127Z,9.747519
2022-07-29T08:09:27.670Z,9.747535
2022-07-29T08:10:06.143Z,9.747507
2022-07-29T08:11:08.737Z,9.747479
2022-07-29T08:12:06.097Z,9.747473
2022-07-29T08:13:04.083Z,9.747573
2022-07-29T08:14:04.085Z,9.747546
2022-07-29T08:15:04.100Z,9.747534
2022-07-29T08:16:04.108Z,9.747522
2022-07-29T08:17:04.086Z,9.747502
2022-07-29T08:18:08.453Z,9.747552
2022-07-29T08:19:05.062Z,9.747565
2022-07-29T08:20:04.061Z,9.747498
2022-07-29T08:21:04.030Z,9.747458
2022-07-29T08:22:04.023Z,9.747484
2022-07-29T08:23:04.012Z,9.747508
2022-07-29T08:24:07.268Z,9.747470
2022-07-29T08:25:05.028Z,9.747504
2022-07-29T08:26:03.990Z,9.747519
2022-07-29T08:27:03.987Z,9.747595
2022-07-29T08:28:03.979Z,9.747557
2022-07-29T08:29:03.968Z,9.747518
2022-07-29T08:30:03.991Z,9.747514
2022-07-29T08:31:03.955Z,9.747556
2022-07-29T08:32:03.979Z,9.747530
2022-07-29T08:33:03.929Z,9.747454
2022-07-29T08:34:04.925Z,9.747481
2022-07-29T08:35:03.959Z,9.747525
2022-07-29T08:36:03.915Z,9.747484
2022-07-29T08:37:03.913Z,9.747526
2022-07-29T08:38:03.917Z,9.747488
2022-07-29T08:39:03.899Z,9.747552
2022-07-29T08:40:03.917Z,9.747574
2022-07-29T08:41:03.883Z,9.747536
2022-07-29T08:42:03.877Z,9.747648
2022-07-29T08:43:03.883Z,9.747649
2022-07-29T08:44:03.860Z,9.747645
2022-07-29T08:45:03.880Z,9.747545
2022-07-29T08:46:03.885Z,9.747549
2022-07-29T08:47:03.846Z,9.747501
2022-07-29T08:48:03.853Z,9.747521
2022-07-29T08:49:03.886Z,9.747474
2022-07-29T08:50:03.839Z,9.747504
2022-07-29T08:51:04.372Z,9.747443
2022-07-29T08:52:03.799Z,9.747405
2022-07-29T08:53:03.793Z,9.747430
2022-07-29T08:54:03.793Z,9.747483
2022-07-29T08:55:03.807Z,9.747499
2022-07-29T08:56:03.781Z,9.747523
2022-07-29T08:57:03.767Z,9.747429
2022-07-29T08:58:03.758Z,9.747417
2022-07-29T08:59:04.858Z,9.747465
2022-07-29T09:00:08.174Z,9.747422
2022-07-29T09:01:07.732Z,9.747436
2022-07-29T09:02:04.773Z,9.747365
2022-07-29T09:03:03.724Z,9.747440
2022-07-29T09:04:03.778Z,9.747428
2022-07-29T09:05:03.737Z,9.747444
2022-07-29T09:06:03.690Z,9.747483
2022-07-29T09:07:03.690Z,9.747375
2022-07-29T09:08:03.689Z,9.747406
2022-07-29T09:09:03.675Z,9.747389
2022-07-29T09:10:03.701Z,9.747457
2022-07-29T09:11:04.056Z,9.747441
2022-07-29T09:12:03.647Z,9.747366
2022-07-29T09:13:03.639Z,9.747285
2022-07-29T09:14:03.632Z,9.747411
2022-07-29T09:15:03.664Z,9.747437
2022-07-29T09:16:08.893Z,9.747471
2022-07-29T09:17:05.978Z,9.747375
2022-07-29T09:18:03.605Z,9.747395
2022-07-29T09:19:03.598Z,9.747358
2022-07-29T09:20:03.605Z,9.747409
2022-07-29T09:21:03.604Z,9.747380
2022-07-29T09:22:04.160Z,9.747410
2022-07-29T09:23:03.571Z,9.747431
2022-07-29T09:24:03.563Z,9.747441
2022-07-29T09:25:03.551Z,9.747408
2022-07-29T09:26:03.565Z,9.747495
2022-07-29T09:27:03.543Z,9.747535
2022-07-29T09:28:03.539Z,9.747481
2022-07-29T09:29:03.534Z,9.747435
2022-07-29T09:30:03.516Z,9.747414
2022-07-29T09:31:03.551Z,9.747358
2022-07-29T09:32:03.557Z,9.747406
2022-07-29T09:33:03.497Z,9.747428
2022-07-29T09:34:03.483Z,9.747470
2022-07-29T09:35:03.478Z,9.747369
2022-07-29T09:36:03.512Z,9.747381
2022-07-29T09:37:03.470Z,9.747262
2022-07-29T09:38:03.463Z,9.747313
2022-07-29T09:39:03.447Z,9.747440
2022-07-29T09:40:03.435Z,9.747439
2022-07-29T09:41:05.794Z,9.747501
2022-07-29T09:42:03.425Z,9.747397
2022-07-29T09:43:03.427Z,9.747362
2022-07-29T09:44:03.417Z,9.747395
2022-07-29T09:45:03.401Z,9.747415
2022-07-29T09:46:03.426Z,9.747309
2022-07-29T09:47:03.396Z,9.747419
2022-07-29T09:48:03.373Z,9.747430
2022-07-29T09:49:03.467Z,9.747312
2022-07-29T09:50:03.366Z,9.747334
2022-07-29T09:51:03.384Z,9.747408
2022-07-29T09:52:03.376Z,9.747428
2022-07-29T09:53:03.344Z,9.747386
2022-07-29T09:54:03.335Z,9.747358
2022-07-29T09:55:03.337Z,9.747290
2022-07-29T09:56:03.350Z,9.747297
2022-07-29T09:57:03.329Z,9.747342
2022-07-29T09:58:03.319Z,9.747331
2022-07-29T09:59:03.296Z,9.747297
2022-07-29T10:00:03.286Z,9.747311
2022-07-29T10:01:03.347Z,9.747295
2022-07-29T10:02:03.282Z,9.747312
2022-07-29T10:03:03.314Z,9.747369
2022-07-29T10:04:03.260Z,9.747323
2022-07-29T10:05:03.248Z,9.747240
2022-07-29T10:06:03.276Z,9.747369
2022-07-29T10:07:05.185Z,9.747374
2022-07-29T10:08:04.225Z,9.747416
2022-07-29T10:09:03.221Z,9.747384
2022-07-29T10:10:03.226Z,9.747375
2022-07-29T10:11:03.247Z,9.747374
2022-07-29T10:12:03.197Z,9.747461
2022-07-29T10:13:07.980Z,9.747345
2022-07-29T10:14:05.191Z,9.747336
2022-07-29T10:15:03.176Z,9.747262
2022-07-29T10:16:03.286Z,9.747275
2022-07-29T10:17:03.184Z,9.747375
2022-07-29T10:18:03.155Z,9.747414
2022-07-29T10:19:03.151Z,9.747452
2022-07-29T10:20:03.155Z,9.747422
2022-07-29T10:21:03.138Z,9.747497
2022-07-29T10:22:03.517Z,9.747766
2022-07-29T10:23:03.097Z,9.747746
2022-07-29T10:24:04.108Z,9.747384
2022-07-29T10:25:03.093Z,9.747314
2022-07-29T10:26:03.084Z,9.747231
2022-07-29T10:27:03.111Z,9.747265
2022-07-29T10:28:03.071Z,9.747417
2022-07-29T10:29:03.093Z,9.747406
2022-07-29T10:30:03.079Z,9.747465
2022-07-29T10:31:03.086Z,9.747414
2022-07-29T10:32:03.075Z,9.747450
2022-07-29T10:33:03.036Z,9.747685
2022-07-29T10:34:03.028Z,9.747540
2022-07-29T10:35:03.038Z,9.747463
2022-07-29T10:36:03.029Z,9.747383
2022-07-29T10:37:03.052Z,9.747404
2022-07-29T10:38:03.006Z,9.747500
2022-07-29T10:39:03.189Z,9.747436
2022-07-29T10:40:02.982Z,9.747172
2022-07-29T10:41:02.978Z,9.747323
2022-07-29T10:43:03.953Z,9.747421
2022-07-29T10:44:02.951Z,9.747489
2022-07-29T10:45:02.941Z,9.747519
2022-07-29T10:46:02.931Z,9.747439
2022-07-29T10:47:03.043Z,9.747517
2022-07-29T10:48:03.923Z,9.747545
2022-07-29T10:49:03.001Z,9.747408
2022-07-29T10:50:02.907Z,9.747391
2022-07-29T10:51:04.005Z,9.747346
2022-07-29T10:52:03.461Z,9.747396
2022-07-29T10:53:02.886Z,9.747437
2022-07-29T10:54:02.882Z,9.747497
2022-07-29T10:55:03.018Z,9.747470
2022-07-29T10:56:06.508Z,9.747435
2022-07-29T10:57:02.894Z,9.747292
2022-07-29T10:58:02.861Z,9.747346
2022-07-29T10:59:02.879Z,9.747255
2022-07-29T11:00:02.867Z,9.747344
2022-07-29T11:01:02.828Z,9.747449
2022-07-29T11:02:35.315Z,9.747353
2022-07-29T11:03:10.976Z,9.747264
2022-07-29T11:04:03.797Z,9.747434
2022-07-29T11:05:02.787Z,9.747531
2022-07-29T11:06:02.795Z,9.747450
2022-07-29T11:07:04.140Z,9.747535
2022-07-29T11:08:02.782Z,9.747498
2022-07-29T11:09:02.768Z,9.747529
2022-07-29T11:10:02.775Z,9.747552
2022-07-29T11:11:02.743Z,9.747533
2022-07-29T11:12:02.928Z,9.747467
2022-07-29T11:13:02.756Z,9.747647
2022-07-29T11:14:02.718Z,9.747758
2022-07-29T11:15:02.720Z,9.747562
2022-07-29T11:16:02.711Z,9.747601
2022-07-29T11:17:02.733Z,9.747640
2022-07-29T11:18:02.691Z,9.747560
2022-07-29T11:19:02.689Z,9.747513
2022-07-29T11:20:02.705Z,9.747479
2022-07-29T11:21:02.689Z,9.747498
2022-07-29T11:22:02.756Z,9.747444
2022-07-29T11:23:02.682Z,9.747456
2022-07-29T11:24:02.647Z,9.747461
2022-07-29T11:25:02.668Z,9.747434
2022-07-29T11:26:02.658Z,9.747472
2022-07-29T11:27:02.985Z,9.747427
2022-07-29T11:28:02.658Z,9.747479
2022-07-29T11:29:02.626Z,9.747439
2022-07-29T11:30:03.401Z,9.747476
2022-07-29T11:31:02.600Z,9.747471
2022-07-29T11:32:02.593Z,9.747462
2022-07-29T11:33:02.655Z,9.747586
2022-07-29T11:34:05.661Z,9.747483
2022-07-29T11:35:03.566Z,9.747449
2022-07-29T11:36:03.564Z,9.747491
2022-07-29T11:37:03.576Z,9.747602
2022-07-29T11:38:02.569Z,9.747531
2022-07-29T11:39:02.559Z,9.747426
2022-07-29T11:40:02.566Z,9.747460
2022-07-29T11:41:03.524Z,9.747425
2022-07-29T11:42:05.150Z,9.747506
2022-07-29T11:43:07.206Z,9.747557
2022-07-29T11:44:02.500Z,9.747573
2022-07-29T11:45:08.766Z,9.747457